createdAt,value
2023-02-11T00:00:42.324Z,1.10
2023-02-11T00:03:09.285Z,1.10
2023-02-11T00:05:35.957Z,1.06
2023-02-11T00:08:02.619Z,1.00
2023-02-11T00:10:29.216Z,1.00
2023-02-11T00:12:56.196Z,0.98
2023-02-11T00:15:22.922Z,0.92
2023-02-11T00:17:49.562Z,0.90
2023-02-11T00:20:16.362Z,0.90
2023-02-11T00:22:43.858Z,0.88
2023-02-11T00:25:10.488Z,0.88
2023-02-11T00:27:37.830Z,0.90
2023-02-11T00:30:06.805Z,0.88
2023-02-11T00:32:33.467Z,0.80
2023-02-11T00:35:00.121Z,0.80
2023-02-11T00:37:26.935Z,0.80
2023-02-11T00:39:53.783Z,0.80
2023-02-11T00:42:20.560Z,0.80
2023-02-11T00:44:47.274Z,0.80
2023-02-11T00:47:17.143Z,0.80
2023-02-11T00:49:43.922Z,0.80
2023-02-11T00:52:10.674Z,0.72
2023-02-11T00:54:37.298Z,0.70
2023-02-11T00:57:04.084Z,0.70
2023-02-11T00:59:30.689Z,0.70
2023-02-11T01:01:57.671Z,0.70
2023-02-11T01:04:24.292Z,0.70
2023-02-11T01:06:52.051Z,0.70
2023-02-11T01:09:19.702Z,0.60
2023-02-11T01:11:46.280Z,0.60
2023-02-11T01:14:13.432Z,0.54
2023-02-11T01:16:40.457Z,0.50
2023-02-11T01:19:07.094Z,0.50
2023-02-11T01:21:33.835Z,0.50
2023-02-11T01:24:00.587Z,0.42
2023-02-11T01:26:27.332Z,0.40
2023-02-11T01:28:54.038Z,0.40
2023-02-11T01:31:20.864Z,0.44
2023-02-11T01:33:47.532Z,0.40
2023-02-11T01:36:14.065Z,0.40
2023-02-11T01:38:41.073Z,0.40
2023-02-11T01:41:12.667Z,0.40
2023-02-11T01:43:44.859Z,0.40
2023-02-11T01:46:23.805Z,0.40
2023-02-11T01:49:12.073Z,0.40
2023-02-11T01:51:57.172Z,0.40
2023-02-11T01:54:48.724Z,0.40
2023-02-11T01:57:25.349Z,0.40
2023-02-11T02:00:34.470Z,0.40
2023-02-11T02:03:08.626Z,0.40
2023-02-11T02:06:08.240Z,0.40
2023-02-11T02:08:51.679Z,0.40
2023-02-11T02:11:18.397Z,0.40
2023-02-11T02:13:45.150Z,0.40
2023-02-11T02:16:15.927Z,0.40
2023-02-11T02:19:05.660Z,0.40
2023-02-11T02:22:11.029Z,0.40
2023-02-11T02:25:33.746Z,0.40
2023-02-11T02:28:22.323Z,0.40
2023-02-11T02:31:14.564Z,0.40
2023-02-11T02:33:53.870Z,0.38
2023-02-11T02:36:50.220Z,0.30
2023-02-11T02:39:32.213Z,0.30
2023-02-11T02:41:59.734Z,0.30
2023-02-11T02:44:26.485Z,0.30
2023-02-11T02:46:53.164Z,0.26
2023-02-11T02:49:19.725Z,0.20
2023-02-11T02:52:16.341Z,0.20
2023-02-11T02:55:27.464Z,0.20
2023-02-11T02:58:24.385Z,0.20
2023-02-11T03:01:33.166Z,0.20
2023-02-11T03:04:13.752Z,0.20
2023-02-11T03:07:01.801Z,0.12
2023-02-11T03:09:38.617Z,0.12
2023-02-11T03:12:07.840Z,0.10
2023-02-11T03:14:36.863Z,0.10
2023-02-11T03:17:06.199Z,0.10
2023-02-11T03:19:48.482Z,0.10
2023-02-11T03:22:30.357Z,0.10
2023-02-11T03:24:57.037Z,0.10
2023-02-11T03:27:51.713Z,0.10
2023-02-11T03:30:30.480Z,0.10
2023-02-11T03:33:13.834Z,0.10
2023-02-11T03:36:01.269Z,0.10
2023-02-11T03:38:45.164Z,0.10
2023-02-11T03:41:16.162Z,0.10
2023-02-11T03:43:52.044Z,0.10
2023-02-11T03:46:24.854Z,0.10
2023-02-11T03:49:02.684Z,0.20
2023-02-11T03:51:32.584Z,0.20
2023-02-11T03:54:04.223Z,0.20
2023-02-11T03:56:50.004Z,0.22
2023-02-11T03:59:16.954Z,0.30
2023-02-11T04:01:43.553Z,0.30
2023-02-11T04:04:10.530Z,0.30
2023-02-11T04:06:37.448Z,0.30
2023-02-11T04:09:04.845Z,0.30
2023-02-11T04:11:31.501Z,0.30
2023-02-11T04:13:58.410Z,0.30
2023-02-11T04:16:26.899Z,0.30
2023-02-11T04:18:53.596Z,0.30
2023-02-11T04:21:20.255Z,0.22
2023-02-11T04:23:46.909Z,0.20
2023-02-11T04:26:13.799Z,0.20
2023-02-11T04:28:40.607Z,0.20
2023-02-11T04:31:07.187Z,0.20
2023-02-11T04:33:33.827Z,0.20
2023-02-11T04:36:00.381Z,0.20
2023-02-11T04:38:26.980Z,0.20
2023-02-11T04:40:53.550Z,0.20
2023-02-11T04:43:20.146Z,0.24
2023-02-11T04:45:46.771Z,0.30
2023-02-11T04:48:13.473Z,0.30
2023-02-11T04:50:40.112Z,0.30
2023-02-11T04:53:06.673Z,0.30
2023-02-11T04:55:33.291Z,0.40
2023-02-11T04:57:59.934Z,0.40
2023-02-11T05:00:26.612Z,0.40
2023-02-11T05:02:53.238Z,0.40
2023-02-11T05:05:19.899Z,0.40
2023-02-11T05:07:46.758Z,0.40
2023-02-11T05:10:13.353Z,0.40
2023-02-11T05:12:39.901Z,0.40
2023-02-11T05:15:06.926Z,0.40
2023-02-11T05:17:33.578Z,0.40
2023-02-11T05:20:00.183Z,0.40
2023-02-11T05:22:26.894Z,0.44
2023-02-11T05:24:53.655Z,0.50
2023-02-11T05:27:20.282Z,0.50
2023-02-11T05:29:46.977Z,0.50
2023-02-11T05:32:13.604Z,0.50
2023-02-11T05:34:40.293Z,0.60
2023-02-11T05:37:06.939Z,0.60
2023-02-11T05:39:33.647Z,0.60
2023-02-11T05:42:00.253Z,0.68
2023-02-11T05:44:26.920Z,0.70
2023-02-11T05:46:53.494Z,0.70
2023-02-11T05:49:20.150Z,0.70
2023-02-11T05:51:46.852Z,0.70
2023-02-11T05:54:13.696Z,0.70
2023-02-11T05:56:40.954Z,0.70
2023-02-11T05:59:08.411Z,0.70
2023-02-11T06:01:35.550Z,0.70
2023-02-11T06:04:02.208Z,0.70
2023-02-11T06:06:28.902Z,0.70
2023-02-11T06:08:56.467Z,0.70
2023-02-11T06:11:23.271Z,0.70
2023-02-11T06:13:50.021Z,0.70
2023-02-11T06:16:16.619Z,0.70
2023-02-11T06:18:43.294Z,0.70
2023-02-11T06:21:11.835Z,0.70
2023-02-11T06:23:39.184Z,0.78
2023-02-11T06:26:09.630Z,0.80
2023-02-11T06:28:38.700Z,0.80
2023-02-11T06:31:08.145Z,0.80
2023-02-11T06:33:36.172Z,0.80
2023-02-11T06:36:04.072Z,0.84
2023-02-11T06:38:31.156Z,0.90
2023-02-11T06:40:57.818Z,0.90
2023-02-11T06:43:24.403Z,1.00
2023-02-11T06:45:55.817Z,1.00
2023-02-11T06:48:23.643Z,1.10
2023-02-11T06:50:50.354Z,1.16
2023-02-11T06:53:17.046Z,1.20
2023-02-11T06:55:43.657Z,1.30
2023-02-11T06:58:10.445Z,1.30
2023-02-11T07:00:37.595Z,1.40
2023-02-11T07:03:04.313Z,1.42
2023-02-11T07:05:30.994Z,1.50
2023-02-11T07:07:57.621Z,1.50
2023-02-11T07:10:24.180Z,1.50
2023-02-11T07:12:50.936Z,1.54
2023-02-11T07:15:17.799Z,1.60
2023-02-11T07:17:44.425Z,1.70
2023-02-11T07:20:12.567Z,1.80
2023-02-11T07:22:39.093Z,1.90
2023-02-11T07:25:06.107Z,1.96
2023-02-11T07:27:32.726Z,2.00
2023-02-11T07:29:59.419Z,2.10
2023-02-11T07:32:26.118Z,2.10
2023-02-11T07:34:52.758Z,2.10
2023-02-11T07:37:19.765Z,2.20
2023-02-11T07:39:46.328Z,2.30
2023-02-11T07:42:12.989Z,2.30
2023-02-11T07:44:39.631Z,2.30
2023-02-11T07:47:06.291Z,2.36
2023-02-11T07:49:33.113Z,2.40
2023-02-11T07:51:59.757Z,2.50
2023-02-11T07:54:26.417Z,2.60
2023-02-11T07:56:53.071Z,2.70
2023-02-11T07:59:19.842Z,2.70
2023-02-11T08:01:46.502Z,2.80
2023-02-11T08:04:13.210Z,2.80
2023-02-11T08:06:43.291Z,2.80
2023-02-11T08:09:16.591Z,2.88
2023-02-11T08:11:43.845Z,2.90
2023-02-11T08:14:11.670Z,2.98
2023-02-11T08:16:39.384Z,3.00
2023-02-11T08:19:12.452Z,3.10
2023-02-11T08:21:40.058Z,3.20
2023-02-11T08:24:07.201Z,3.30
2023-02-11T08:26:35.371Z,3.40
2023-02-11T08:29:08.432Z,3.60
2023-02-11T08:31:38.628Z,3.70
2023-02-11T08:34:06.266Z,3.88
2023-02-11T08:36:36.719Z,3.96
2023-02-11T08:39:18.670Z,4.00
2023-02-11T08:41:50.424Z,4.10
2023-02-11T08:44:19.147Z,4.10
2023-02-11T08:46:45.893Z,4.20
2023-02-11T08:49:12.514Z,4.30
2023-02-11T08:51:39.133Z,4.36
2023-02-11T08:54:09.529Z,4.40
2023-02-11T08:56:38.458Z,4.40
2023-02-11T08:59:06.181Z,4.50
2023-02-11T09:01:33.046Z,4.60
2023-02-11T09:03:59.711Z,4.60
2023-02-11T09:06:27.330Z,4.70
2023-02-11T09:08:56.876Z,4.80
2023-02-11T09:11:34.169Z,4.90
2023-02-11T09:14:02.489Z,5.00
2023-02-11T09:16:34.089Z,5.00
2023-02-11T09:19:04.138Z,5.10
2023-02-11T09:21:31.824Z,5.10
2023-02-11T09:23:58.453Z,5.10
2023-02-11T09:26:31.740Z,5.20
2023-02-11T09:29:00.051Z,5.30
2023-02-11T09:31:29.585Z,5.38
2023-02-11T09:34:00.513Z,5.40
2023-02-11T09:36:32.041Z,5.50
2023-02-11T09:39:01.968Z,5.56
2023-02-11T09:42:06.493Z,5.60
2023-02-11T09:44:36.767Z,5.72
2023-02-11T09:47:27.702Z,5.80
2023-02-11T09:50:22.884Z,5.80
2023-02-11T09:53:00.983Z,5.82
2023-02-11T09:55:39.699Z,6.00
2023-02-11T09:58:22.970Z,6.98
2023-02-11T10:01:36.081Z,8.48
2023-02-11T10:04:29.740Z,9.74
2023-02-11T10:07:25.965Z,10.76
2023-02-11T10:10:33.596Z,10.80
2023-02-11T10:13:31.125Z,10.70
2023-02-11T10:16:20.642Z,10.50
2023-02-11T10:19:11.325Z,10.40
2023-02-11T10:22:03.648Z,10.20
2023-02-11T10:24:31.620Z,10.10
2023-02-11T10:26:58.238Z,9.98
2023-02-11T10:29:38.867Z,9.80
2023-02-11T10:32:22.011Z,9.84
2023-02-11T10:34:48.679Z,9.44
2023-02-11T10:37:15.286Z,9.38
2023-02-11T10:39:42.179Z,9.50
2023-02-11T10:42:13.979Z,9.30
2023-02-11T10:44:59.840Z,9.50
2023-02-11T10:47:36.752Z,9.78
2023-02-11T10:50:19.623Z,9.60
2023-02-11T10:52:46.262Z,9.70
2023-02-11T10:55:24.716Z,9.70
2023-02-11T10:57:58.324Z,9.80
2023-02-11T11:00:41.142Z,9.60
2023-02-11T11:03:25.266Z,9.60
2023-02-11T11:06:03.185Z,9.72
2023-02-11T11:08:49.771Z,9.90
2023-02-11T11:11:20.306Z,9.90
2023-02-11T11:13:52.954Z,9.90
2023-02-11T11:16:30.511Z,9.90
2023-02-11T11:19:25.255Z,10.00
2023-02-11T11:21:55.672Z,10.00
2023-02-11T11:24:38.905Z,10.00
2023-02-11T11:27:06.082Z,10.04
2023-02-11T11:29:46.468Z,9.90
2023-02-11T11:32:22.691Z,9.80
2023-02-11T11:35:00.767Z,9.80
2023-02-11T11:37:35.935Z,9.90
2023-02-11T11:40:11.112Z,9.94
2023-02-11T11:42:40.144Z,10.00
2023-02-11T11:45:10.236Z,10.04
2023-02-11T11:47:53.903Z,10.00
2023-02-11T11:50:44.453Z,10.00
2023-02-11T11:53:19.135Z,9.90
2023-02-11T11:55:53.099Z,9.70
2023-02-11T11:58:23.137Z,9.60
2023-02-11T12:01:34.111Z,9.60
2023-02-11T12:04:57.792Z,9.80
2023-02-11T12:07:56.155Z,10.00
2023-02-11T12:10:57.793Z,10.14
2023-02-11T12:13:41.262Z,10.16
2023-02-11T12:16:30.063Z,9.90
2023-02-11T12:19:27.873Z,9.78
2023-02-11T12:22:12.498Z,9.70
2023-02-11T12:25:09.557Z,9.60
2023-02-11T12:28:01.572Z,9.50
2023-02-11T12:31:02.307Z,9.54
2023-02-11T12:33:44.882Z,9.60
2023-02-11T12:36:54.469Z,9.40
2023-02-11T12:40:12.704Z,9.30
2023-02-11T12:43:13.743Z,9.50
2023-02-11T12:45:49.534Z,9.60
2023-02-11T12:48:36.821Z,9.70
2023-02-11T12:51:23.871Z,9.72
2023-02-11T12:54:06.784Z,9.70
2023-02-11T12:56:39.703Z,9.60
2023-02-11T12:59:17.445Z,9.60
2023-02-11T13:01:44.991Z,9.60
2023-02-11T13:04:27.137Z,9.60
2023-02-11T13:07:12.603Z,9.60
2023-02-11T13:09:47.382Z,9.70
2023-02-11T13:12:33.494Z,9.70
2023-02-11T13:15:07.637Z,9.60
2023-02-11T13:17:47.507Z,9.50
2023-02-11T13:20:45.636Z,9.40
2023-02-11T13:23:50.275Z,9.56
2023-02-11T13:26:25.918Z,9.70
2023-02-11T13:29:26.623Z,9.80
2023-02-11T13:32:14.963Z,10.00
2023-02-11T13:34:41.455Z,10.00
2023-02-11T13:37:22.859Z,10.10
2023-02-11T13:40:19.060Z,10.20
2023-02-11T13:43:00.849Z,10.18
2023-02-11T13:45:44.863Z,10.18
2023-02-11T13:48:26.901Z,10.10
2023-02-11T13:51:01.120Z,10.20
2023-02-11T13:53:29.161Z,10.10
2023-02-11T13:56:11.514Z,10.10
2023-02-11T13:58:50.442Z,9.96
2023-02-11T14:02:14.435Z,9.86
2023-02-11T14:05:24.791Z,9.94
2023-02-11T14:08:28.646Z,10.00
2023-02-11T14:11:12.396Z,9.90
2023-02-11T14:13:48.235Z,9.70
2023-02-11T14:16:28.306Z,9.80
2023-02-11T14:19:02.496Z,9.80
2023-02-11T14:21:29.427Z,9.70
2023-02-11T14:24:01.858Z,9.70
2023-02-11T14:26:51.486Z,9.80
2023-02-11T14:29:29.903Z,9.80
2023-02-11T14:32:20.498Z,9.70
2023-02-11T14:35:10.472Z,9.60
2023-02-11T14:38:35.861Z,9.50
2023-02-11T14:41:25.417Z,9.40
2023-02-11T14:44:04.097Z,9.30
2023-02-11T14:46:35.169Z,9.20
2023-02-11T14:49:04.742Z,9.20
2023-02-11T14:51:36.830Z,9.20
2023-02-11T14:54:15.140Z,9.18
2023-02-11T14:56:42.739Z,9.14
2023-02-11T14:59:21.964Z,9.10
2023-02-11T15:01:56.365Z,9.00
2023-02-11T15:04:33.551Z,9.10
2023-02-11T15:07:10.706Z,9.10
2023-02-11T15:09:44.596Z,9.10
2023-02-11T15:12:29.466Z,9.00
2023-02-11T15:14:59.825Z,9.00
2023-02-11T15:17:30.702Z,9.00
2023-02-11T15:20:01.471Z,8.90
2023-02-11T15:22:33.056Z,8.90
2023-02-11T15:25:10.624Z,8.86
2023-02-11T15:27:38.669Z,8.80
2023-02-11T15:30:20.281Z,8.86
2023-02-11T15:32:48.366Z,8.80
2023-02-11T15:35:15.090Z,8.70
2023-02-11T15:37:41.992Z,8.60
2023-02-11T15:40:21.655Z,8.58
2023-02-11T15:43:04.272Z,8.50
2023-02-11T15:45:42.975Z,8.40
2023-02-11T15:48:35.480Z,8.30
2023-02-11T15:51:13.248Z,8.20
2023-02-11T15:53:43.346Z,8.20
2023-02-11T15:56:17.213Z,8.14
2023-02-11T15:58:47.731Z,8.14
2023-02-11T16:01:15.458Z,8.20
2023-02-11T16:03:43.654Z,8.20
2023-02-11T16:06:18.773Z,8.20
2023-02-11T16:09:08.506Z,8.10
2023-02-11T16:11:58.883Z,8.00
2023-02-11T16:14:34.731Z,8.00
2023-02-11T16:17:24.312Z,7.90
2023-02-11T16:19:53.681Z,7.90
2023-02-11T16:22:27.535Z,7.92
2023-02-11T16:24:57.952Z,7.90
2023-02-11T16:27:41.947Z,7.90
2023-02-11T16:30:28.989Z,7.90
2023-02-11T16:32:55.651Z,7.80
2023-02-11T16:35:22.332Z,7.80
2023-02-11T16:37:49.030Z,7.80
2023-02-11T16:40:15.885Z,7.80
2023-02-11T16:42:42.655Z,7.80
2023-02-11T16:45:09.921Z,7.80
2023-02-11T16:47:40.963Z,7.80
2023-02-11T16:50:21.200Z,7.80
2023-02-11T16:52:48.439Z,7.80
2023-02-11T16:55:15.363Z,7.74
2023-02-11T16:57:42.290Z,7.70
2023-02-11T17:00:10.337Z,7.64
2023-02-11T17:02:38.936Z,7.60
2023-02-11T17:05:11.794Z,7.70
2023-02-11T17:07:38.332Z,7.60
2023-02-11T17:10:18.173Z,7.52
2023-02-11T17:12:45.208Z,7.50
2023-02-11T17:15:11.844Z,7.50
2023-02-11T17:17:38.430Z,7.50
2023-02-11T17:20:06.771Z,7.50
2023-02-11T17:22:33.589Z,7.46
2023-02-11T17:25:00.291Z,7.40
2023-02-11T17:27:26.920Z,7.30
2023-02-11T17:29:53.569Z,7.30
2023-02-11T17:32:20.256Z,7.30
2023-02-11T17:34:46.915Z,7.30
2023-02-11T17:37:13.520Z,7.26
2023-02-11T17:39:40.782Z,7.24
2023-02-11T17:42:08.790Z,7.20
2023-02-11T17:44:35.742Z,7.20
2023-02-11T17:47:02.375Z,7.20
2023-02-11T17:49:29.047Z,7.20
2023-02-11T17:51:55.827Z,7.20
2023-02-11T17:54:22.586Z,7.10
2023-02-11T17:56:50.889Z,7.00
2023-02-11T17:59:17.863Z,7.00
2023-02-11T18:01:44.499Z,6.90
2023-02-11T18:04:16.621Z,6.90
2023-02-11T18:06:44.427Z,6.90
2023-02-11T18:09:12.046Z,6.92
2023-02-11T18:11:41.247Z,6.90
2023-02-11T18:14:09.593Z,6.90
2023-02-11T18:16:39.046Z,6.90
2023-02-11T18:19:07.509Z,6.90
2023-02-11T18:21:34.456Z,6.90
2023-02-11T18:24:06.049Z,6.90
2023-02-11T18:26:33.408Z,6.90
2023-02-11T18:29:00.498Z,6.90
2023-02-11T18:31:28.102Z,6.90
2023-02-11T18:33:54.890Z,6.90
2023-02-11T18:36:22.819Z,6.80
2023-02-11T18:38:49.462Z,6.80
2023-02-11T18:41:16.192Z,6.80
2023-02-11T18:43:43.138Z,6.70
2023-02-11T18:46:13.240Z,6.60
2023-02-11T18:48:41.333Z,6.60
2023-02-11T18:51:15.086Z,6.70
2023-02-11T18:53:43.362Z,6.72
2023-02-11T18:56:18.204Z,6.80
2023-02-11T18:58:45.035Z,6.80
2023-02-11T19:01:26.042Z,6.80
2023-02-11T19:03:54.568Z,6.80
2023-02-11T19:06:28.958Z,6.80
2023-02-11T19:09:00.255Z,6.80
2023-02-11T19:11:47.604Z,6.80
2023-02-11T19:14:27.223Z,6.80
2023-02-11T19:16:57.234Z,6.80
2023-02-11T19:19:28.506Z,6.80
2023-02-11T19:21:57.452Z,6.80
2023-02-11T19:24:25.567Z,6.80
2023-02-11T19:26:56.911Z,6.80
2023-02-11T19:29:24.298Z,6.80
2023-02-11T19:31:51.118Z,6.80
2023-02-11T19:34:22.005Z,6.76
2023-02-11T19:36:50.212Z,6.70
2023-02-11T19:39:18.585Z,6.70
2023-02-11T19:41:45.359Z,6.70
2023-02-11T19:44:14.121Z,6.70
2023-02-11T19:46:40.922Z,6.70
2023-02-11T19:49:09.942Z,6.70
2023-02-11T19:51:39.299Z,6.70
2023-02-11T19:54:08.213Z,6.64
2023-02-11T19:56:35.390Z,6.60
2023-02-11T19:59:04.875Z,6.60
2023-02-11T20:01:31.805Z,6.58
2023-02-11T20:03:58.597Z,6.56
2023-02-11T20:06:30.039Z,6.58
2023-02-11T20:09:01.491Z,6.60
2023-02-11T20:11:30.899Z,6.60
2023-02-11T20:13:58.295Z,6.60
2023-02-11T20:16:46.203Z,6.60
2023-02-11T20:19:19.003Z,6.60
2023-02-11T20:21:48.876Z,6.60
2023-02-11T20:24:17.750Z,6.64
2023-02-11T20:26:50.314Z,6.70
2023-02-11T20:29:18.531Z,6.70
2023-02-11T20:31:45.700Z,6.70
2023-02-11T20:34:12.646Z,6.70
2023-02-11T20:36:40.576Z,6.70
2023-02-11T20:39:08.620Z,6.70
2023-02-11T20:41:40.022Z,6.78
2023-02-11T20:44:10.604Z,6.80
2023-02-11T20:46:41.108Z,6.80
2023-02-11T20:49:11.851Z,6.80
2023-02-11T20:51:39.753Z,6.80
2023-02-11T20:54:06.932Z,6.80
2023-02-11T20:56:37.567Z,6.80
2023-02-11T20:59:05.558Z,6.80
2023-02-11T21:01:37.895Z,6.80
2023-02-11T21:04:15.780Z,6.88
2023-02-11T21:06:47.615Z,6.84
2023-02-11T21:09:21.281Z,6.84
2023-02-11T21:11:52.643Z,6.82
2023-02-11T21:14:22.850Z,6.80
2023-02-11T21:16:51.167Z,6.84
2023-02-11T21:19:18.175Z,6.84
2023-02-11T21:21:45.098Z,6.88
2023-02-11T21:24:12.301Z,6.90
2023-02-11T21:26:39.262Z,6.80
2023-02-11T21:29:08.518Z,6.80
2023-02-11T21:31:36.759Z,6.80
2023-02-11T21:34:04.516Z,6.80
2023-02-11T21:36:31.316Z,6.80
2023-02-11T21:38:58.678Z,6.80
2023-02-11T21:41:27.412Z,6.80
2023-02-11T21:43:54.445Z,6.80
2023-02-11T21:46:22.102Z,6.80
2023-02-11T21:48:49.362Z,6.80
2023-02-11T21:51:23.098Z,6.80
2023-02-11T21:53:57.976Z,6.80
2023-02-11T21:56:28.662Z,6.78
2023-02-11T21:58:58.238Z,6.76
2023-02-11T22:01:32.807Z,6.76
2023-02-11T22:03:59.631Z,6.78
2023-02-11T22:06:31.056Z,6.70
2023-02-11T22:08:59.126Z,6.68
2023-02-11T22:11:25.666Z,6.60
2023-02-11T22:13:56.400Z,6.60
2023-02-11T22:16:24.207Z,6.52
2023-02-11T22:18:51.583Z,6.50
2023-02-11T22:21:21.872Z,6.50
2023-02-11T22:23:49.501Z,6.50
2023-02-11T22:26:23.193Z,6.60
2023-02-11T22:28:51.594Z,6.50
2023-02-11T22:31:31.432Z,6.50
2023-02-11T22:33:58.990Z,6.50
2023-02-11T22:36:30.158Z,6.60
2023-02-11T22:39:03.785Z,6.60
2023-02-11T22:41:30.537Z,6.60
2023-02-11T22:43:57.680Z,6.60
2023-02-11T22:46:24.913Z,6.60
2023-02-11T22:48:52.132Z,6.60
2023-02-11T22:51:23.719Z,6.60
2023-02-11T22:53:57.158Z,6.56
2023-02-11T22:56:24.515Z,6.50
2023-02-11T22:58:51.927Z,6.40
2023-02-11T23:01:19.246Z,6.36
2023-02-11T23:03:46.235Z,6.30
2023-02-11T23:06:13.109Z,6.20
2023-02-11T23:08:42.837Z,6.20
2023-02-11T23:11:17.561Z,6.20
2023-02-11T23:13:46.558Z,6.20
2023-02-11T23:16:34.567Z,6.18
2023-02-11T23:19:06.610Z,6.10
2023-02-11T23:21:38.212Z,6.10
2023-02-11T23:24:12.680Z,6.00
2023-02-11T23:26:41.484Z,6.00
2023-02-11T23:29:10.258Z,6.00
2023-02-11T23:31:40.531Z,6.00
2023-02-11T23:34:08.760Z,6.00
2023-02-11T23:36:36.143Z,6.10
2023-02-11T23:39:03.668Z,6.10
2023-02-11T23:41:30.414Z,6.06
2023-02-11T23:43:58.109Z,6.08
2023-02-11T23:46:26.996Z,6.00
2023-02-11T23:48:53.858Z,6.00
2023-02-11T23:51:22.001Z,6.00
2023-02-11T23:53:49.862Z,6.00
2023-02-11T23:56:26.431Z,6.00
2023-02-11T23:58:57.225Z,6.00
